createdAt,value
2018-09-21T00:01:13.871Z,24.10
2018-09-21T00:03:46.627Z,24.10
2018-09-21T00:06:15.173Z,24.10
2018-09-21T00:08:43.735Z,24.10
2018-09-21T00:11:12.363Z,24.10
2018-09-21T00:13:40.931Z,24.10
2018-09-21T00:16:09.517Z,24.10
2018-09-21T00:18:38.130Z,24.10
2018-09-21T00:21:06.876Z,24.10
2018-09-21T00:23:35.427Z,24.00
2018-09-21T00:26:03.983Z,24.00
2018-09-21T00:28:32.706Z,24.00
2018-09-21T00:31:01.307Z,24.00
2018-09-21T00:33:29.884Z,24.00
2018-09-21T00:35:58.627Z,24.00
2018-09-21T00:38:27.443Z,24.00
2018-09-21T00:40:55.986Z,24.00
2018-09-21T00:43:24.663Z,24.00
2018-09-21T00:45:53.307Z,24.00
2018-09-21T00:48:21.925Z,24.00
2018-09-21T00:50:50.491Z,24.00
2018-09-21T00:53:19.051Z,24.00
2018-09-21T00:55:47.657Z,24.00
2018-09-21T00:58:16.279Z,24.00
2018-09-21T01:00:44.869Z,24.00
2018-09-21T01:03:13.420Z,24.00
2018-09-21T01:05:41.990Z,24.00
2018-09-21T01:08:10.696Z,24.00
2018-09-21T01:10:39.323Z,24.00
2018-09-21T01:13:07.888Z,24.00
2018-09-21T01:15:36.516Z,24.00
2018-09-21T01:18:05.571Z,24.00
2018-09-21T01:20:34.277Z,24.00
2018-09-21T01:23:03.448Z,24.00
2018-09-21T01:25:32.087Z,24.00
2018-09-21T01:28:00.615Z,24.00
2018-09-21T01:30:29.342Z,24.00
2018-09-21T01:32:57.943Z,24.00
2018-09-21T01:35:26.987Z,24.00
2018-09-21T01:37:55.681Z,24.00
2018-09-21T01:40:24.262Z,24.00
2018-09-21T01:42:52.834Z,24.00
2018-09-21T01:45:21.413Z,24.00
2018-09-21T01:47:49.982Z,24.00
2018-09-21T01:50:18.626Z,24.00
2018-09-21T01:52:47.227Z,24.00
2018-09-21T01:55:15.847Z,24.00
2018-09-21T01:57:44.447Z,24.00
2018-09-21T02:00:12.971Z,24.00
2018-09-21T02:02:41.653Z,24.00
2018-09-21T02:05:10.204Z,23.90
2018-09-21T02:07:38.767Z,24.00
2018-09-21T02:10:07.368Z,24.00
2018-09-21T02:12:35.924Z,23.90
2018-09-21T02:15:04.496Z,23.90
2018-09-21T02:17:33.070Z,23.90
2018-09-21T02:20:01.691Z,24.00
2018-09-21T02:22:30.298Z,23.90
2018-09-21T02:24:58.888Z,23.90
2018-09-21T02:27:27.481Z,23.90
2018-09-21T02:29:56.100Z,23.90
2018-09-21T02:32:24.807Z,23.90
2018-09-21T02:34:53.406Z,23.90
2018-09-21T02:37:22.043Z,23.90
2018-09-21T02:39:50.698Z,23.90
2018-09-21T02:42:19.300Z,23.90
2018-09-21T02:44:47.944Z,23.90
2018-09-21T02:47:17.045Z,23.90
2018-09-21T02:49:45.647Z,23.90
2018-09-21T02:52:14.249Z,23.90
2018-09-21T02:54:42.843Z,23.90
2018-09-21T02:57:11.469Z,23.90
2018-09-21T02:59:40.148Z,23.90
2018-09-21T03:02:08.751Z,23.90
2018-09-21T03:04:42.459Z,23.90
2018-09-21T03:07:11.149Z,23.90
2018-09-21T03:09:39.776Z,23.90
2018-09-21T03:12:08.524Z,23.90
2018-09-21T03:14:37.123Z,23.90
2018-09-21T03:17:05.789Z,23.90
2018-09-21T03:19:34.363Z,23.90
2018-09-21T03:22:02.959Z,23.90
2018-09-21T03:24:31.551Z,23.90
2018-09-21T03:27:00.207Z,23.80
2018-09-21T03:29:28.891Z,23.80
2018-09-21T03:31:57.544Z,23.80
2018-09-21T03:34:26.160Z,23.80
2018-09-21T03:36:54.781Z,23.80
2018-09-21T03:39:23.466Z,23.80
2018-09-21T03:41:52.053Z,23.80
2018-09-21T03:44:20.811Z,23.80
2018-09-21T03:46:49.413Z,23.80
2018-09-21T03:49:18.141Z,23.80
2018-09-21T03:51:46.747Z,23.80
2018-09-21T03:54:15.878Z,23.80
2018-09-21T03:56:44.504Z,23.80
2018-09-21T03:59:13.107Z,23.80
2018-09-21T04:01:41.663Z,23.80
2018-09-21T04:04:10.315Z,23.80
2018-09-21T04:06:38.927Z,23.80
2018-09-21T04:09:09.124Z,23.80
2018-09-21T04:11:37.720Z,23.80
2018-09-21T04:14:06.336Z,23.80
2018-09-21T04:16:34.934Z,23.80
2018-09-21T04:19:03.552Z,23.80
2018-09-21T04:21:32.120Z,23.80
2018-09-21T04:24:00.727Z,23.80
2018-09-21T04:26:29.350Z,23.80
2018-09-21T04:28:57.937Z,23.90
2018-09-21T04:31:26.489Z,24.10
2018-09-21T04:33:55.147Z,24.20
2018-09-21T04:36:23.790Z,24.30
2018-09-21T04:38:52.395Z,24.40
2018-09-21T04:41:21.087Z,24.70
2018-09-21T04:46:23.455Z,24.90
2018-09-21T04:48:52.238Z,25.10
2018-09-21T04:51:22.124Z,25.30
2018-09-21T04:53:50.755Z,25.40
2018-09-21T04:56:19.358Z,25.60
2018-09-21T04:58:48.010Z,25.70
2018-09-21T05:01:16.648Z,25.90
2018-09-21T05:03:45.333Z,25.90
2018-09-21T05:06:13.950Z,26.00
2018-09-21T05:08:42.587Z,26.00
2018-09-21T05:11:11.255Z,26.20
2018-09-21T05:13:40.016Z,26.20
2018-09-21T05:16:08.746Z,26.20
2018-09-21T05:18:37.355Z,26.10
2018-09-21T05:21:06.107Z,26.10
2018-09-21T05:23:34.964Z,26.00
2018-09-21T05:26:03.633Z,25.90
2018-09-21T05:28:32.492Z,25.70
2018-09-21T05:31:01.452Z,25.60
2018-09-21T05:35:58.263Z,25.50
2018-09-21T05:43:23.322Z,25.10
2018-09-21T05:45:51.919Z,25.10
2018-09-21T05:48:20.493Z,24.90
2018-09-21T05:50:49.342Z,24.90
2018-09-21T05:53:17.896Z,24.90
2018-09-21T05:55:46.578Z,24.80
2018-09-21T05:58:15.151Z,24.60
2018-09-21T06:00:43.839Z,24.60
2018-09-21T06:03:12.419Z,24.50
2018-09-21T06:05:41.003Z,24.50
2018-09-21T06:08:09.631Z,24.50
2018-09-21T06:10:38.267Z,24.40
2018-09-21T06:13:06.876Z,24.40
2018-09-21T06:15:35.522Z,24.40
2018-09-21T06:18:04.096Z,24.30
2018-09-21T06:20:32.756Z,24.30
2018-09-21T06:23:01.353Z,24.20
2018-09-21T06:25:29.911Z,24.20
2018-09-21T06:27:59.203Z,24.10
2018-09-21T06:30:27.927Z,24.10
2018-09-21T06:32:56.588Z,24.10
2018-09-21T06:35:25.200Z,24.10
2018-09-21T06:37:53.828Z,24.20
2018-09-21T06:40:22.541Z,24.20
2018-09-21T06:42:51.141Z,24.20
2018-09-21T06:47:48.748Z,24.20
2018-09-21T06:50:17.308Z,24.20
2018-09-21T06:52:45.884Z,24.20
2018-09-21T06:55:14.478Z,24.10
2018-09-21T06:57:43.090Z,24.10
2018-09-21T07:00:11.754Z,24.20
2018-09-21T07:02:40.365Z,24.20
2018-09-21T07:05:15.967Z,24.20
2018-09-21T07:07:45.132Z,24.10
2018-09-21T07:10:14.283Z,24.20
2018-09-21T07:12:43.529Z,24.10
2018-09-21T07:15:12.171Z,24.10
2018-09-21T07:17:41.415Z,24.10
2018-09-21T07:20:10.016Z,24.10
2018-09-21T07:22:38.607Z,24.10
2018-09-21T07:25:07.260Z,24.10
2018-09-21T07:27:35.844Z,24.10
2018-09-21T07:30:04.429Z,24.20
2018-09-21T07:32:33.771Z,24.10
2018-09-21T07:35:03.020Z,24.10
2018-09-21T07:37:31.683Z,24.10
2018-09-21T07:40:00.213Z,24.20
2018-09-21T07:42:28.777Z,24.10
2018-09-21T07:44:57.349Z,24.20
2018-09-21T07:47:25.903Z,24.10
2018-09-21T07:49:54.512Z,24.10
2018-09-21T07:52:23.061Z,24.10
2018-09-21T07:54:51.610Z,24.10
2018-09-21T07:57:20.151Z,24.10
2018-09-21T07:59:48.700Z,24.10
2018-09-21T08:02:17.334Z,24.20
2018-09-21T08:04:45.864Z,24.20
2018-09-21T08:07:14.493Z,24.20
2018-09-21T08:09:43.001Z,24.20
2018-09-21T08:12:11.575Z,24.20
2018-09-21T08:14:40.148Z,24.20
2018-09-21T08:17:08.727Z,24.20
2018-09-21T08:19:37.307Z,24.20
2018-09-21T08:22:05.907Z,24.20
2018-09-21T08:24:34.433Z,24.20
2018-09-21T08:27:03.963Z,24.20
2018-09-21T08:29:32.567Z,24.20
2018-09-21T08:32:01.128Z,24.20
2018-09-21T08:34:29.707Z,24.20
2018-09-21T08:36:58.258Z,24.20
2018-09-21T08:39:26.856Z,24.20
2018-09-21T08:41:55.426Z,24.20
2018-09-21T08:44:24.013Z,24.20
2018-09-21T08:46:52.581Z,24.20
2018-09-21T08:49:21.161Z,24.20
2018-09-21T08:51:49.737Z,24.20
2018-09-21T08:54:18.288Z,24.20
2018-09-21T08:56:46.863Z,24.20
2018-09-21T08:59:15.640Z,24.20
2018-09-21T09:01:44.247Z,24.20
2018-09-21T09:04:12.810Z,24.20
2018-09-21T09:06:41.407Z,24.20
2018-09-21T09:09:10.524Z,24.30
2018-09-21T09:11:39.462Z,24.20
2018-09-21T09:16:36.523Z,24.30
2018-09-21T09:19:05.104Z,24.30
2018-09-21T09:21:34.600Z,24.30
2018-09-21T09:24:03.127Z,24.30
2018-09-21T09:26:31.659Z,24.30
2018-09-21T09:29:00.340Z,24.30
2018-09-21T09:31:28.905Z,24.30
2018-09-21T09:33:57.497Z,24.30
2018-09-21T09:36:26.128Z,24.30
2018-09-21T09:38:54.708Z,24.30
2018-09-21T09:41:23.330Z,24.40
2018-09-21T09:43:51.874Z,24.40
2018-09-21T09:46:20.462Z,24.40
2018-09-21T09:48:49.045Z,24.40
2018-09-21T09:51:17.677Z,24.40
2018-09-21T09:53:46.266Z,24.40
2018-09-21T09:56:14.800Z,24.40
2018-09-21T09:58:43.366Z,24.40
2018-09-21T10:01:11.927Z,24.50
2018-09-21T10:03:40.608Z,24.50
2018-09-21T10:06:09.247Z,24.40
2018-09-21T10:08:37.855Z,24.50
2018-09-21T10:11:06.480Z,24.50
2018-09-21T10:13:35.052Z,24.50
2018-09-21T10:16:03.584Z,24.50
2018-09-21T10:18:32.327Z,24.50
2018-09-21T10:21:00.888Z,24.50
2018-09-21T10:23:29.444Z,24.50
2018-09-21T10:25:58.067Z,24.60
2018-09-21T10:28:26.739Z,24.60
2018-09-21T10:30:55.277Z,24.60
2018-09-21T10:33:23.864Z,24.60
2018-09-21T10:35:52.479Z,24.50
2018-09-21T10:38:21.023Z,24.50
2018-09-21T10:40:49.571Z,24.50
2018-09-21T10:43:18.160Z,24.50
2018-09-21T10:45:46.875Z,24.50
2018-09-21T10:48:15.519Z,24.50
2018-09-21T10:50:44.075Z,24.50
2018-09-21T10:53:12.629Z,24.50
2018-09-21T10:55:41.222Z,24.50
2018-09-21T10:58:09.764Z,24.50
2018-09-21T11:00:38.440Z,24.50
2018-09-21T11:03:06.960Z,24.50
2018-09-21T11:05:35.516Z,24.50
2018-09-21T11:08:04.113Z,24.50
2018-09-21T11:13:01.489Z,24.50
2018-09-21T11:15:30.107Z,24.50
2018-09-21T11:17:58.629Z,24.50
2018-09-21T11:20:27.200Z,24.50
2018-09-21T11:22:55.820Z,24.50
2018-09-21T11:25:24.456Z,24.50
2018-09-21T11:27:53.012Z,24.50
2018-09-21T11:30:21.580Z,24.50
2018-09-21T11:32:50.179Z,24.50
2018-09-21T11:35:18.852Z,24.50
2018-09-21T11:37:47.437Z,24.50
2018-09-21T11:40:16.010Z,24.50
2018-09-21T11:42:44.612Z,24.60
2018-09-21T11:45:13.166Z,24.60
2018-09-21T11:47:41.769Z,24.60
2018-09-21T11:50:10.291Z,24.60
2018-09-21T11:52:38.915Z,24.60
2018-09-21T11:55:07.523Z,24.60
2018-09-21T11:57:36.071Z,24.60
2018-09-21T12:00:06.657Z,24.60
2018-09-21T12:02:35.211Z,24.60
2018-09-21T12:05:03.899Z,24.60
2018-09-21T12:07:32.449Z,24.60
2018-09-21T12:10:01.109Z,24.70
2018-09-21T12:12:29.648Z,24.70
2018-09-21T12:14:58.195Z,24.70
2018-09-21T12:17:26.879Z,24.70
2018-09-21T12:19:55.480Z,24.70
2018-09-21T12:22:24.093Z,24.70
2018-09-21T12:24:52.698Z,24.70
2018-09-21T12:27:21.264Z,24.70
2018-09-21T12:29:50.640Z,24.70
2018-09-21T12:32:19.216Z,24.70
2018-09-21T12:34:47.815Z,24.70
2018-09-21T12:37:16.348Z,24.70
2018-09-21T12:39:44.888Z,24.70
2018-09-21T12:42:13.489Z,24.70
2018-09-21T12:44:42.169Z,24.70
2018-09-21T12:47:10.719Z,24.70
2018-09-21T12:49:39.415Z,24.70
2018-09-21T12:52:08.611Z,24.70
2018-09-21T12:54:37.446Z,24.70
2018-09-21T12:57:06.136Z,24.70
2018-09-21T12:59:34.697Z,24.70
2018-09-21T13:02:06.241Z,24.70
2018-09-21T13:04:34.868Z,24.70
2018-09-21T13:07:03.498Z,24.70
2018-09-21T13:09:32.091Z,24.70
2018-09-21T13:12:00.659Z,24.60
2018-09-21T13:14:29.287Z,24.70
2018-09-21T13:16:57.818Z,24.60
2018-09-21T13:19:26.397Z,24.60
2018-09-21T13:21:55.071Z,24.60
2018-09-21T13:24:23.633Z,24.60
2018-09-21T13:26:52.271Z,24.60
2018-09-21T13:29:20.784Z,24.60
2018-09-21T13:31:49.627Z,24.70
2018-09-21T13:34:18.272Z,24.70
2018-09-21T13:36:46.818Z,24.70
2018-09-21T13:39:15.373Z,24.80
2018-09-21T13:41:43.951Z,24.80
2018-09-21T13:44:12.569Z,24.80
2018-09-21T13:46:41.173Z,24.80
2018-09-21T13:49:09.746Z,24.90
2018-09-21T13:51:38.383Z,24.90
2018-09-21T13:54:06.940Z,24.90
2018-09-21T13:56:35.479Z,24.90
2018-09-21T13:59:04.539Z,24.90
2018-09-21T14:01:33.246Z,24.90
2018-09-21T14:04:02.572Z,24.90
2018-09-21T14:06:31.120Z,24.90
2018-09-21T14:08:59.676Z,24.90
2018-09-21T14:11:28.231Z,24.90
2018-09-21T14:13:56.799Z,24.90
2018-09-21T14:16:25.530Z,24.90
2018-09-21T14:18:54.095Z,24.90
2018-09-21T14:21:22.708Z,24.80
2018-09-21T14:23:51.256Z,24.80
2018-09-21T14:26:19.882Z,24.90
2018-09-21T14:28:48.439Z,24.90
2018-09-21T14:31:17.009Z,24.90
2018-09-21T14:33:45.558Z,24.80
2018-09-21T14:36:14.160Z,24.80
2018-09-21T14:38:42.729Z,24.70
2018-09-21T14:41:11.365Z,24.70
2018-09-21T14:43:39.951Z,24.70
2018-09-21T14:46:08.510Z,24.70
2018-09-21T14:48:37.063Z,24.70
2018-09-21T14:51:06.039Z,24.70
2018-09-21T14:53:34.656Z,24.70
2018-09-21T14:56:03.226Z,24.70
2018-09-21T14:58:31.796Z,24.70
2018-09-21T15:03:28.928Z,24.70
2018-09-21T15:05:57.586Z,24.70
2018-09-21T15:08:26.182Z,24.60
2018-09-21T15:10:54.794Z,24.70
2018-09-21T15:13:23.379Z,24.60
2018-09-21T15:15:51.914Z,24.60
2018-09-21T15:18:20.512Z,24.60
2018-09-21T15:20:49.110Z,24.60
2018-09-21T15:23:17.694Z,24.60
2018-09-21T15:25:46.232Z,24.60
2018-09-21T15:28:14.783Z,24.60
2018-09-21T15:30:43.366Z,24.60
2018-09-21T15:35:55.047Z,24.60
2018-09-21T15:38:23.626Z,24.60
2018-09-21T15:40:52.186Z,24.60
2018-09-21T15:43:20.804Z,24.50
2018-09-21T15:45:49.363Z,24.50
2018-09-21T15:48:17.950Z,24.60
2018-09-21T15:50:46.500Z,24.50
2018-09-21T15:53:15.024Z,24.50
2018-09-21T15:55:43.592Z,24.50
2018-09-21T15:58:12.240Z,24.50
2018-09-21T16:00:40.793Z,24.50
2018-09-21T16:03:09.359Z,24.50
2018-09-21T16:05:37.947Z,24.50
2018-09-21T16:08:06.508Z,24.50
2018-09-21T16:10:35.167Z,24.50
2018-09-21T16:13:03.859Z,24.50
2018-09-21T16:15:32.507Z,24.50
2018-09-21T16:18:01.607Z,24.40
2018-09-21T16:20:30.188Z,24.40
2018-09-21T16:22:58.807Z,24.40
2018-09-21T16:25:27.412Z,24.40
2018-09-21T16:27:55.991Z,24.40
2018-09-21T16:30:24.640Z,24.40
2018-09-21T16:32:53.431Z,24.40
2018-09-21T16:35:21.968Z,24.40
2018-09-21T16:37:50.697Z,24.30
2018-09-21T16:40:19.269Z,24.30
2018-09-21T16:42:47.831Z,24.30
2018-09-21T16:45:16.381Z,24.30
2018-09-21T16:47:44.910Z,24.30
2018-09-21T16:50:13.542Z,24.30
2018-09-21T16:52:42.099Z,24.30
2018-09-21T16:55:10.657Z,24.20
2018-09-21T16:57:39.295Z,24.30
2018-09-21T17:02:36.472Z,24.20
2018-09-21T17:05:05.780Z,24.20
2018-09-21T17:07:34.508Z,24.20
2018-09-21T17:10:03.072Z,24.20
2018-09-21T17:12:31.963Z,24.10
2018-09-21T17:15:00.532Z,24.10
2018-09-21T17:17:29.211Z,24.10
2018-09-21T17:19:57.763Z,24.20
2018-09-21T17:22:26.339Z,24.20
2018-09-21T17:27:23.160Z,24.20
2018-09-21T17:29:51.732Z,24.20
2018-09-21T17:32:20.319Z,24.30
2018-09-21T17:34:48.953Z,24.40
2018-09-21T17:37:17.559Z,24.40
2018-09-21T17:39:46.237Z,24.50
2018-09-21T17:42:14.807Z,24.60
2018-09-21T17:44:43.344Z,25.00
2018-09-21T17:47:11.962Z,25.20
2018-09-21T17:49:40.560Z,25.20
2018-09-21T17:52:09.117Z,25.60
2018-09-21T17:54:37.792Z,25.70
2018-09-21T17:57:07.011Z,25.70
2018-09-21T17:59:35.574Z,25.80
2018-09-21T18:04:32.564Z,26.20
2018-09-21T18:07:01.110Z,26.30
2018-09-21T18:11:57.996Z,26.40
2018-09-21T18:14:26.600Z,26.40
2018-09-21T18:16:55.143Z,26.20
2018-09-21T18:19:23.727Z,26.10
2018-09-21T18:21:52.267Z,26.00
2018-09-21T18:24:20.892Z,26.00
2018-09-21T18:26:49.444Z,25.90
2018-09-21T18:29:18.021Z,25.60
2018-09-21T18:31:46.582Z,25.50
2018-09-21T18:34:15.336Z,25.40
2018-09-21T18:41:42.714Z,25.10
2018-09-21T18:44:12.158Z,25.00
2018-09-21T18:46:40.679Z,24.90
2018-09-21T18:49:09.191Z,24.90
2018-09-21T18:51:37.786Z,24.90
2018-09-21T18:54:06.316Z,24.80
2018-09-21T18:56:34.849Z,24.80
2018-09-21T18:59:03.420Z,24.70
2018-09-21T19:01:31.943Z,24.70
2018-09-21T19:04:00.623Z,24.60
2018-09-21T19:06:29.159Z,24.60
2018-09-21T19:08:57.733Z,24.50
2018-09-21T19:13:54.700Z,24.50
2018-09-21T19:16:23.542Z,24.40
2018-09-21T19:18:52.147Z,24.40
2018-09-21T19:21:20.727Z,24.40
2018-09-21T19:23:49.308Z,24.40
2018-09-21T19:26:17.847Z,24.30
2018-09-21T19:28:46.464Z,24.30
2018-09-21T19:31:15.007Z,24.30
2018-09-21T19:33:43.707Z,24.30
2018-09-21T19:36:12.322Z,24.30
2018-09-21T19:38:40.893Z,24.30
2018-09-21T19:41:09.628Z,24.30
2018-09-21T19:43:38.205Z,24.30
2018-09-21T19:46:06.818Z,24.20
2018-09-21T19:48:35.743Z,24.20
2018-09-21T19:51:04.622Z,24.30
2018-09-21T19:53:33.624Z,24.30
2018-09-21T19:56:02.176Z,24.30
2018-09-21T19:58:30.728Z,24.20
2018-09-21T20:00:59.488Z,24.20
2018-09-21T20:03:28.074Z,24.20
2018-09-21T20:05:56.659Z,24.20
2018-09-21T20:08:25.312Z,24.20
2018-09-21T20:10:53.860Z,24.20
2018-09-21T20:13:23.279Z,24.20
2018-09-21T20:15:51.882Z,24.20
2018-09-21T20:18:20.414Z,24.20
2018-09-21T20:23:17.220Z,24.20
2018-09-21T20:25:45.799Z,24.10
2018-09-21T20:28:14.307Z,24.10
2018-09-21T20:30:48.292Z,24.10
2018-09-21T20:33:22.124Z,24.10
2018-09-21T20:35:50.679Z,24.20
2018-09-21T20:38:19.523Z,24.20
2018-09-21T20:40:48.066Z,24.20
2018-09-21T20:43:16.652Z,24.30
2018-09-21T20:45:45.192Z,24.50
2018-09-21T20:48:13.836Z,24.50
2018-09-21T20:50:42.371Z,24.80
2018-09-21T20:53:10.900Z,25.20
2018-09-21T20:55:39.473Z,25.40
2018-09-21T20:58:08.119Z,25.40
2018-09-21T21:00:36.788Z,25.60
2018-09-21T21:03:05.320Z,25.60
2018-09-21T21:05:33.938Z,25.90
2018-09-21T21:08:02.627Z,25.90
2018-09-21T21:10:31.829Z,25.90
2018-09-21T21:13:01.287Z,25.90
2018-09-21T21:15:29.902Z,25.70
2018-09-21T21:17:58.457Z,25.60
2018-09-21T21:20:27.058Z,25.50
2018-09-21T21:22:55.644Z,25.40
2018-09-21T21:25:24.172Z,25.30
2018-09-21T21:27:52.784Z,25.20
2018-09-21T21:30:21.452Z,25.10
2018-09-21T21:32:50.132Z,24.90
2018-09-21T21:35:18.768Z,24.80
2018-09-21T21:37:47.292Z,24.80
2018-09-21T21:40:15.892Z,24.70
2018-09-21T21:42:44.548Z,24.60
2018-09-21T21:45:13.086Z,24.50
2018-09-21T21:47:41.862Z,24.50
2018-09-21T21:50:10.431Z,24.40
2018-09-21T21:52:38.965Z,24.30
2018-09-21T21:55:07.583Z,24.20
2018-09-21T21:57:36.150Z,24.20
2018-09-21T22:00:05.498Z,24.20
2018-09-21T22:02:35.033Z,24.20
2018-09-21T22:05:03.841Z,24.20
2018-09-21T22:07:34.111Z,24.10
2018-09-21T22:10:04.664Z,24.10
2018-09-21T22:12:38.543Z,24.10
2018-09-21T22:15:25.475Z,24.20
2018-09-21T22:17:54.106Z,24.20
2018-09-21T22:20:22.770Z,24.20
2018-09-21T22:22:51.331Z,24.20
2018-09-21T22:25:19.936Z,24.30
2018-09-21T22:27:48.644Z,24.30
2018-09-21T22:30:17.302Z,24.30
2018-09-21T22:32:45.996Z,24.20
2018-09-21T22:35:14.540Z,24.20
2018-09-21T22:37:43.083Z,24.20
2018-09-21T22:40:11.625Z,24.20
2018-09-21T22:42:40.139Z,24.20
2018-09-21T22:45:08.749Z,24.10
2018-09-21T22:47:37.421Z,24.10
2018-09-21T22:50:05.968Z,24.10
2018-09-21T22:52:35.052Z,24.10
2018-09-21T22:55:04.854Z,24.10
2018-09-21T23:00:02.927Z,24.00
2018-09-21T23:02:31.632Z,24.00
2018-09-21T23:05:00.199Z,24.00
2018-09-21T23:07:28.773Z,24.00
2018-09-21T23:09:57.360Z,24.00
2018-09-21T23:12:25.919Z,24.00
2018-09-21T23:14:54.667Z,24.00
2018-09-21T23:17:23.218Z,24.00
2018-09-21T23:19:51.783Z,23.90
2018-09-21T23:22:20.367Z,23.90
2018-09-21T23:24:49.019Z,23.90
2018-09-21T23:27:17.570Z,24.00
2018-09-21T23:29:46.155Z,23.90
2018-09-21T23:32:15.270Z,23.90
2018-09-21T23:34:43.778Z,23.90
2018-09-21T23:37:12.475Z,23.90
2018-09-21T23:39:41.031Z,23.90
2018-09-21T23:42:09.607Z,23.90
2018-09-21T23:44:38.194Z,23.90
2018-09-21T23:47:06.816Z,23.90
2018-09-21T23:49:35.329Z,23.90
2018-09-21T23:52:03.871Z,23.90
2018-09-21T23:54:32.487Z,23.80
2018-09-21T23:57:01.019Z,23.80
2018-09-21T23:59:29.585Z,23.90
